Time;durP1;ratioP1;P1;durP2;ratioP2;P2;SDS_P1;SDS_P2;PMS_P1;PMS_P2;Temp;Humidity;BMP_temperature;BMP_pressure;BME280_temperature;BME280_humidity;BME280_pressure;Samples;Min_cycle;Max_cycle;Signal;HPM_P1;HPM_P2
2022/06/15 00:01:20;;;;;;;8.65;4.30;;;;;;;17.22;51.47;101491.37;1749523;81;26445;-55
2022/06/15 00:03:49;;;;;;;12.68;4.40;;;;;;;17.21;50.26;101489.70;1746154;81;25849;-56
2022/06/15 00:06:26;;;;;;;11.05;5.08;;;;;;;17.12;49.86;101489.31;1749963;81;26109;-56
2022/06/15 00:08:57;;;;;;;11.78;5.20;;;;;;;17.08;49.62;101486.56;1752055;81;25875;-56
2022/06/15 00:11:29;;;;;;;7.03;4.35;;;;;;;17.06;49.68;101485.38;1741148;81;27445;-56
2022/06/15 00:14:00;;;;;;;13.20;5.05;;;;;;;17.09;49.80;101482.83;1745049;81;25761;-56
2022/06/15 00:16:27;;;;;;;5.35;3.60;;;;;;;17.12;50.93;101481.16;1723470;81;25748;-55
2022/06/15 00:18:55;;;;;;;8.18;4.12;;;;;;;17.11;51.07;101472.66;1724708;81;26001;-56
2022/06/15 00:21:22;;;;;;;7.97;3.52;;;;;;;17.11;51.58;101476.73;1745867;81;26491;-57
2022/06/15 00:23:50;;;;;;;13.13;4.40;;;;;;;17.08;51.75;101477.05;1737851;81;27119;-57
2022/06/15 00:26:18;;;;;;;13.05;3.52;;;;;;;17.07;51.57;101473.98;1723754;81;25863;-57
2022/06/15 00:28:45;;;;;;;10.85;3.92;;;;;;;17.04;51.87;101475.16;1733302;81;25877;-57
2022/06/15 00:31:12;;;;;;;11.43;3.52;;;;;;;17.00;51.93;101471.05;1748836;81;26089;-56
2022/06/15 00:33:39;;;;;;;7.50;4.30;;;;;;;16.97;52.15;101474.11;1732316;81;25792;-55
2022/06/15 00:36:11;;;;;;;5.83;2.72;;;;;;;16.91;52.00;101476.92;1734758;81;29561;-56
2022/06/15 00:38:43;;;;;;;7.15;2.85;;;;;;;16.84;51.54;101481.30;1723937;81;25786;-55
2022/06/15 00:41:14;;;;;;;8.35;3.00;;;;;;;16.73;50.79;101475.13;1771753;80;25984;-56
2022/06/15 00:43:46;;;;;;;8.10;2.70;;;;;;;16.63;50.78;101473.02;1778392;80;26122;-55
2022/06/15 00:46:33;;;;;;;8.08;3.52;;;;;;;16.61;50.76;101472.31;1772023;80;25741;-56
2022/06/15 00:49:25;;;;;;;10.40;3.75;;;;;;;16.62;51.73;101469.94;1768497;79;27700;-57
2022/06/15 00:51:57;;;;;;;13.13;3.95;;;;;;;16.59;52.18;101467.05;1754094;79;25906;-57
2022/06/15 00:54:25;;;;;;;10.65;3.95;;;;;;;16.54;52.72;101476.16;1755894;79;25816;-56
2022/06/15 00:56:54;;;;;;;18.70;4.87;;;;;;;16.45;53.23;101478.46;1759114;79;26715;-56
2022/06/15 00:59:35;;;;;;;16.67;4.17;;;;;;;16.39;53.41;101477.26;1768274;79;25824;-56
2022/06/15 01:02:02;;;;;;;11.80;4.08;;;;;;;16.31;53.92;101472.25;1755336;79;27481;-56
2022/06/15 01:04:52;;;;;;;12.82;2.85;;;;;;;16.22;53.93;101478.97;1767463;80;25815;-56
2022/06/15 01:07:51;;;;;;;5.55;2.77;;;;;;;16.19;53.87;101479.27;1761266;79;25794;-56
2022/06/15 01:10:54;;;;;;;4.28;2.17;;;;;;;16.11;53.52;101476.48;1735475;80;26080;-56
2022/06/15 01:13:45;;;;;;;10.72;4.00;;;;;;;16.09;53.47;101488.86;1709827;83;25826;-57
2022/06/15 01:16:18;;;;;;;14.00;3.75;;;;;;;16.08;53.42;101484.95;1717284;82;28177;-56
2022/06/15 01:19:07;;;;;;;12.90;3.37;;;;;;;16.05;54.02;101486.09;1717222;83;25901;-56
2022/06/15 01:21:45;;;;;;;10.00;3.45;;;;;;;16.00;54.90;101478.94;1708926;83;25797;-56
2022/06/15 01:25:01;;;;;;;6.50;3.30;;;;;;;15.89;55.26;101489.52;1705641;82;26180;-56
2022/06/15 01:27:39;;;;;;;21.62;3.98;;;;;;;15.81;55.26;101490.24;1712821;82;25915;-56
2022/06/15 01:30:34;;;;;;;13.55;4.17;;;;;;;15.75;55.66;101492.22;1715628;82;27487;-56
2022/06/15 01:33:25;;;;;;;13.32;4.28;;;;;;;15.67;55.83;101496.20;1712770;82;25840;-55
2022/06/15 01:36:13;;;;;;;6.78;3.40;;;;;;;15.60;56.01;101500.50;1712942;82;25773;-56
2022/06/15 01:39:06;;;;;;;6.00;2.98;;;;;;;15.56;56.33;101495.88;1722078;82;26288;-55
2022/06/15 01:41:47;;;;;;;5.92;2.10;;;;;;;15.55;56.36;101504.19;1697481;83;25973;-56
2022/06/15 01:44:26;;;;;;;8.83;1.98;;;;;;;15.49;56.90;101506.50;1720981;81;27464;-56
2022/06/15 01:46:57;;;;;;;6.47;2.70;;;;;;;15.43;56.17;101502.18;1736866;80;25872;-56
2022/06/15 01:49:29;;;;;;;15.50;3.12;;;;;;;15.47;56.40;101514.41;1728644;81;25776;-56
2022/06/15 01:51:59;;;;;;;12.40;2.95;;;;;;;15.51;56.58;101515.00;1753454;81;26094;-56
2022/06/15 01:54:36;;;;;;;5.17;2.60;;;;;;;15.55;58.60;101521.81;1754148;81;25798;-56
2022/06/15 01:57:08;;;;;;;7.10;2.77;;;;;;;15.38;59.37;101521.61;1752674;80;28338;-56
2022/06/15 01:59:46;;;;;;;13.03;2.98;;;;;;;15.24;58.90;101517.52;1750843;81;25762;-57
2022/06/15 02:02:38;;;;;;;11.10;3.00;;;;;;;15.21;58.77;101521.87;1753844;81;25810;-57
2022/06/15 02:05:32;;;;;;;10.03;3.22;;;;;;;15.21;58.82;101515.62;1748775;81;26890;-55
2022/06/15 02:08:31;;;;;;;8.73;3.20;;;;;;;15.21;58.88;101523.23;1747584;80;26625;-55
2022/06/15 02:11:34;;;;;;;10.63;3.02;;;;;;;15.21;58.98;101523.75;1770640;78;27478;-55
2022/06/15 02:14:16;;;;;;;6.60;2.67;;;;;;;15.20;58.85;101521.52;1760507;78;25737;-57
2022/06/15 02:16:59;;;;;;;12.78;3.52;;;;;;;15.21;58.97;101519.16;1772567;79;25774;-56
2022/06/15 02:19:41;;;;;;;6.15;2.72;;;;;;;15.21;59.00;101516.45;1764652;79;26084;-56
2022/06/15 02:22:13;;;;;;;9.00;3.02;;;;;;;15.22;59.07;101518.17;1758539;78;25814;-56
2022/06/15 02:24:44;;;;;;;14.03;2.70;;;;;;;15.24;59.63;101528.37;1757948;78;27474;-57
2022/06/15 02:27:13;;;;;;;11.88;2.58;;;;;;;15.27;59.40;101525.85;1766365;78;25804;-57
2022/06/15 02:29:44;;;;;;;10.20;2.83;;;;;;;15.30;59.21;101518.27;1780388;80;25876;-56
2022/06/15 02:32:12;;;;;;;11.93;2.72;;;;;;;15.33;59.01;101523.41;1754950;79;26122;-56
2022/06/15 02:34:40;;;;;;;6.47;2.30;;;;;;;15.36;58.49;101524.96;1772258;79;25904;-56
2022/06/15 02:37:07;;;;;;;6.20;2.90;;;;;;;15.37;58.70;101532.09;1753699;79;27459;-56
2022/06/15 02:39:35;;;;;;;8.75;2.22;;;;;;;15.32;58.79;101534.41;1762633;79;26296;-56
2022/06/15 02:42:25;;;;;;;12.85;2.40;;;;;;;15.31;58.86;101532.19;1754209;80;25812;-55
2022/06/15 02:44:58;;;;;;;9.73;2.90;;;;;;;15.30;59.02;101537.25;1767775;80;26183;-56
2022/06/15 02:47:29;;;;;;;14.18;3.17;;;;;;;15.27;59.24;101538.92;1730332;79;26175;-55
2022/06/15 02:49:59;;;;;;;11.00;2.27;;;;;;;15.26;59.10;101544.47;1730265;80;28188;-57
2022/06/15 02:52:32;;;;;;;7.50;2.25;;;;;;;15.27;58.53;101538.05;1756857;79;25721;-55
2022/06/15 02:54:59;;;;;;;8.33;2.47;;;;;;;15.30;57.92;101539.95;1755411;80;25910;-55
2022/06/15 02:57:27;;;;;;;8.33;3.00;;;;;;;15.36;58.37;101541.74;1755172;79;26095;-56
2022/06/15 02:59:57;;;;;;;6.92;2.67;;;;;;;15.39;58.33;101545.48;1759478;80;26256;-56
2022/06/15 03:02:27;;;;;;;5.53;2.87;;;;;;;15.42;58.25;101546.56;1780449;80;29422;-56
2022/06/15 03:04:55;;;;;;;10.48;2.85;;;;;;;15.44;58.36;101548.11;1779190;80;25773;-55
2022/06/15 03:07:25;;;;;;;12.58;4.22;;;;;;;15.47;58.69;101551.02;1776526;80;25522;-56
2022/06/15 03:09:54;;;;;;;6.62;2.75;;;;;;;15.48;58.66;101545.47;1745393;80;26228;-56
2022/06/15 03:12:23;;;;;;;7.12;2.20;;;;;;;15.49;58.64;101538.17;1713389;83;25774;-56
2022/06/15 03:14:52;;;;;;;10.43;2.58;;;;;;;15.52;59.09;101544.66;1719542;81;27564;-56
2022/06/15 03:17:20;;;;;;;9.45;2.47;;;;;;;15.54;58.82;101543.15;1711189;83;25802;-56
2022/06/15 03:19:48;;;;;;;12.65;2.70;;;;;;;15.56;58.94;101547.92;1714405;83;25894;-55
2022/06/15 03:22:17;;;;;;;9.08;2.62;;;;;;;15.56;58.26;101540.62;1713754;82;26086;-56
2022/06/15 03:24:45;;;;;;;11.35;2.67;;;;;;;15.62;57.65;101548.67;1713256;83;25745;-55
2022/06/15 03:27:13;;;;;;;14.20;3.12;;;;;;;15.69;57.23;101547.06;1712544;83;27518;-56
2022/06/15 03:29:42;;;;;;;12.18;2.52;;;;;;;15.75;57.00;101549.19;1705515;83;25819;-56
2022/06/15 03:32:14;;;;;;;10.63;2.40;;;;;;;15.71;56.46;101553.19;1718152;82;25911;-56
2022/06/15 03:34:43;;;;;;;9.95;2.40;;;;;;;15.72;56.21;101561.69;1712667;81;25992;-56
2022/06/15 03:37:10;;;;;;;7.90;2.05;;;;;;;15.78;55.84;101566.50;1714789;82;25537;-55
2022/06/15 03:39:39;;;;;;;8.73;2.10;;;;;;;15.81;55.59;101562.66;1723837;80;27480;-56
2022/06/15 03:42:17;;;;;;;7.22;2.10;;;;;;;15.84;55.53;101561.52;1753956;80;25759;-55
2022/06/15 03:44:45;;;;;;;9.18;2.40;;;;;;;15.85;55.21;101561.36;1768723;80;25768;-57
2022/06/15 03:47:16;;;;;;;4.47;2.02;;;;;;;15.87;55.21;101560.71;1765837;79;26089;-56
2022/06/15 03:49:42;;;;;;;4.12;1.90;;;;;;;15.89;55.14;101561.42;1766475;79;25478;-55
2022/06/15 03:52:10;;;;;;;7.28;2.30;;;;;;;15.93;55.03;101558.73;1766471;79;28323;-56
2022/06/15 03:54:37;;;;;;;18.55;11.60;;;;;;;16.00;54.90;101558.98;1753772;79;25917;-56
2022/06/15 03:57:06;;;;;;;17.77;4.15;;;;;;;16.07;54.76;101556.01;1754054;79;25980;-56
2022/06/15 03:59:35;;;;;;;11.00;2.50;;;;;;;16.15;54.70;101557.09;1781447;80;26448;-56
2022/06/15 04:02:04;;;;;;;9.40;2.62;;;;;;;16.23;55.07;101557.17;1774633;80;25875;-57
2022/06/15 04:04:33;;;;;;;6.60;2.30;;;;;;;16.27;54.81;101558.07;1781209;80;27614;-56
2022/06/15 04:07:02;;;;;;;9.18;2.20;;;;;;;16.36;54.67;101559.53;1781387;80;25778;-56
2022/06/15 04:09:30;;;;;;;12.78;2.37;;;;;;;16.42;54.71;101565.17;1758982;79;25477;-56
2022/06/15 04:11:59;;;;;;;6.92;1.85;;;;;;;16.41;54.43;101562.11;1710583;83;26059;-56
2022/06/15 04:14:31;;;;;;;7.05;2.60;;;;;;;16.40;54.20;101564.50;1711870;82;25885;-56
2022/06/15 04:17:00;;;;;;;5.05;1.70;;;;;;;16.47;54.27;101565.23;1676773;85;27446;-56
2022/06/15 04:19:33;;;;;;;6.03;1.98;;;;;;;16.52;54.28;101572.39;1658756;85;26035;-56
2022/06/15 04:22:01;;;;;;;12.25;1.90;;;;;;;16.51;53.91;101565.25;1659111;85;25762;-56
2022/06/15 04:24:30;;;;;;;3.98;1.72;;;;;;;16.51;53.93;101572.03;1659738;86;26284;-57
2022/06/15 04:26:59;;;;;;;2.72;1.50;;;;;;;16.50;54.00;101569.84;1635391;86;25950;-57
2022/06/15 04:29:27;;;;;;;2.47;1.65;;;;;;;16.53;54.08;101569.55;1659195;85;27482;-56
2022/06/15 04:31:54;;;;;;;5.03;1.72;;;;;;;16.52;53.86;101574.62;1658362;85;25822;-57
2022/06/15 04:34:21;;;;;;;3.12;1.50;;;;;;;16.49;53.83;101580.35;1659131;86;25890;-57
2022/06/15 04:36:48;;;;;;;6.70;1.70;;;;;;;16.57;53.98;101573.63;1658412;86;26096;-57
2022/06/15 04:39:15;;;;;;;5.90;1.52;;;;;;;16.71;53.92;101575.46;1662505;83;25526;-57
2022/06/15 04:41:44;;;;;;;5.35;1.95;;;;;;;16.84;53.71;101573.17;1753735;80;27508;-57
2022/06/15 04:44:13;;;;;;;7.58;1.90;;;;;;;17.02;53.99;101575.03;1760040;80;25778;-56
2022/06/15 04:46:42;;;;;;;3.12;1.90;;;;;;;17.12;53.69;101577.14;1763746;79;25699;-56
2022/06/15 04:49:09;;;;;;;4.15;1.80;;;;;;;17.26;53.57;101584.38;1768195;79;26148;-57
2022/06/15 04:51:42;;;;;;;9.93;2.30;;;;;;;17.37;53.46;101585.45;1733085;82;25928;-57
2022/06/15 04:54:10;;;;;;;9.00;2.52;;;;;;;17.45;53.38;101581.93;1695945;82;28333;-57
2022/06/15 04:56:39;;;;;;;13.65;2.10;;;;;;;17.53;53.59;101584.17;1748179;79;25964;-56
2022/06/15 04:59:08;;;;;;;13.98;2.47;;;;;;;17.62;54.00;101588.29;1773008;80;25771;-57
2022/06/15 05:01:35;;;;;;;11.70;1.95;;;;;;;17.62;53.34;101585.08;1757175;79;26140;-56
2022/06/15 05:04:03;;;;;;;11.48;1.67;;;;;;;17.62;53.34;101591.88;1758868;80;25909;-56
2022/06/15 05:06:35;;;;;;;13.65;2.00;;;;;;;17.69;52.92;101598.89;1756082;79;27454;-56
2022/06/15 05:09:05;;;;;;;14.93;2.00;;;;;;;17.72;53.17;101597.18;1758270;79;25716;-56
2022/06/15 05:11:32;;;;;;;14.00;1.62;;;;;;;17.77;52.09;101598.92;1695657;83;25814;-56
2022/06/15 05:14:00;;;;;;;8.93;1.75;;;;;;;17.80;52.43;101597.22;1711186;82;26030;-55
2022/06/15 05:16:28;;;;;;;4.97;1.87;;;;;;;17.90;52.05;101594.38;1717800;82;25937;-56
2022/06/15 05:18:56;;;;;;;9.38;2.27;;;;;;;17.94;51.65;101597.62;1719196;82;27437;-57
2022/06/15 05:21:27;;;;;;;7.62;1.70;;;;;;;18.04;51.64;101599.73;1715375;82;25802;-56
2022/06/15 05:23:54;;;;;;;10.60;1.98;;;;;;;18.14;51.29;101590.05;1712190;83;25945;-56
2022/06/15 05:26:30;;;;;;;8.23;2.17;;;;;;;18.28;50.66;101594.00;1708256;83;26124;-57
2022/06/15 05:28:57;;;;;;;7.80;2.33;;;;;;;18.41;50.91;101595.73;1714191;83;25672;-56
2022/06/15 05:31:26;;;;;;;5.22;1.77;;;;;;;18.58;50.17;101597.12;1716504;83;27497;-57
2022/06/15 05:33:57;;;;;;;2.87;1.67;;;;;;;18.70;49.56;101595.73;1712359;82;26086;-56
2022/06/15 05:36:35;;;;;;;4.85;2.00;;;;;;;18.86;49.19;101603.60;1706454;82;25958;-56
2022/06/15 05:39:05;;;;;;;14.83;1.87;;;;;;;18.98;48.56;101604.13;1708265;80;26174;-55
2022/06/15 05:41:34;;;;;;;6.37;1.32;;;;;;;19.07;48.30;101607.19;1763234;80;25973;-55
2022/06/15 05:46:35;;;;;;;7.65;1.70;;;;;;;19.23;48.04;101607.66;1759830;79;26241;-56
2022/06/15 05:49:22;;;;;;;8.68;2.02;;;;;;;19.35;47.98;101600.83;1768066;79;25493;-56
2022/06/15 05:51:49;;;;;;;6.03;1.50;;;;;;;19.45;47.06;101602.51;1753910;79;26142;-57
2022/06/15 05:54:16;;;;;;;5.20;1.10;;;;;;;19.47;46.29;101599.94;1764124;79;25924;-56
2022/06/15 05:56:43;;;;;;;10.82;2.00;;;;;;;19.48;46.43;101603.01;1760676;79;28281;-56
2022/06/15 05:59:10;;;;;;;4.28;1.70;;;;;;;19.55;46.54;101601.80;1771370;80;25703;-56
2022/06/15 06:01:38;;;;;;;6.08;1.60;;;;;;;19.60;46.25;101602.11;1762298;80;25483;-57
2022/06/15 06:04:06;;;;;;;7.58;1.60;;;;;;;19.65;46.36;101604.31;1750264;80;26218;-56
2022/06/15 06:06:34;;;;;;;10.25;2.10;;;;;;;19.61;46.18;101607.08;1750603;80;25727;-56
2022/06/15 06:09:01;;;;;;;4.17;1.75;;;;;;;19.63;46.38;101605.87;1764907;80;28260;-56
2022/06/15 06:11:29;;;;;;;5.97;1.37;;;;;;;19.64;45.87;101602.61;1757364;80;25795;-56
2022/06/15 06:13:56;;;;;;;5.65;1.90;;;;;;;19.57;45.86;101607.94;1755624;80;25887;-56
2022/06/15 06:16:23;;;;;;;3.30;1.40;;;;;;;19.54;46.06;101609.12;1763348;80;26103;-57
2022/06/15 06:18:51;;;;;;;10.50;1.87;;;;;;;19.54;46.24;101603.66;1780954;80;25676;-56
2022/06/15 06:21:20;;;;;;;5.47;1.80;;;;;;;19.54;46.21;101610.48;1753645;79;27750;-57
2022/06/15 06:23:47;;;;;;;4.97;1.55;;;;;;;19.53;46.27;101606.58;1744014;80;26007;-57
2022/06/15 06:26:28;;;;;;;3.47;1.90;;;;;;;19.48;46.09;101611.20;1766587;79;25754;-56
2022/06/15 06:28:56;;;;;;;11.18;2.00;;;;;;;19.39;45.65;101604.92;1757832;80;26825;-56
2022/06/15 06:31:25;;;;;;;5.50;1.85;;;;;;;19.33;45.40;101612.42;1733328;80;25941;-56
2022/06/15 06:33:53;;;;;;;7.75;1.60;;;;;;;19.28;45.50;101607.14;1747644;78;26875;-56
2022/06/15 06:36:33;;;;;;;5.92;2.25;;;;;;;19.27;45.72;101613.65;1722081;81;25719;-56
2022/06/15 06:39:05;;;;;;;6.00;1.57;;;;;;;19.27;45.80;101609.03;1693047;81;25865;-56
2022/06/15 06:41:33;;;;;;;4.28;1.90;;;;;;;19.32;46.07;101610.71;1711000;82;26067;-55
2022/06/15 06:44:01;;;;;;;4.75;1.67;;;;;;;19.36;45.56;101610.72;1714485;82;25897;-57
2022/06/15 06:46:28;;;;;;;7.65;1.90;;;;;;;19.39;45.34;101608.15;1701932;81;27345;-57
2022/06/15 06:48:57;;;;;;;7.03;1.92;;;;;;;19.47;45.05;101603.19;1726158;82;25863;-56
2022/06/15 06:51:25;;;;;;;6.12;1.77;;;;;;;19.54;44.98;101610.48;1679122;81;25915;-56
2022/06/15 06:53:51;;;;;;;4.87;1.42;;;;;;;19.56;44.39;101604.88;1679761;81;26996;-56
2022/06/15 06:56:18;;;;;;;7.60;1.40;;;;;;;19.62;44.10;101603.32;1715190;82;25793;-56
2022/06/15 06:58:45;;;;;;;7.20;1.40;;;;;;;19.68;44.00;101607.54;1700463;82;27340;-56
2022/06/15 07:01:12;;;;;;;10.30;1.42;;;;;;;19.77;43.90;101608.38;1697741;81;25764;-56
2022/06/15 07:03:38;;;;;;;3.67;1.32;;;;;;;19.84;43.63;101608.00;1700925;81;25748;-56
2022/06/15 07:06:09;;;;;;;4.92;1.00;;;;;;;19.92;42.57;101607.16;1701046;82;26074;-56
2022/06/15 07:08:38;;;;;;;6.95;1.25;;;;;;;19.97;42.08;101605.25;1691532;81;25535;-55
2022/06/15 07:11:12;;;;;;;10.58;1.15;;;;;;;20.04;42.48;101601.30;1700057;82;27579;-56
2022/06/15 07:13:39;;;;;;;6.90;1.45;;;;;;;20.17;42.49;101602.39;1671745;85;25615;-56
2022/06/15 07:16:09;;;;;;;8.78;1.07;;;;;;;20.30;42.12;101603.70;1681343;82;25636;-56
2022/06/15 07:18:37;;;;;;;6.58;1.52;;;;;;;20.38;41.70;101603.64;1694858;82;26903;-56
2022/06/15 07:21:08;;;;;;;10.45;1.15;;;;;;;20.52;40.68;101603.91;1720323;82;25465;-56
2022/06/15 07:23:35;;;;;;;4.58;1.27;;;;;;;20.57;40.43;101606.43;1690380;81;28352;-56
2022/06/15 07:26:06;;;;;;;4.78;1.00;;;;;;;20.69;40.13;101606.84;1734439;81;25927;-56
2022/06/15 07:28:33;;;;;;;7.03;1.25;;;;;;;20.79;39.72;101608.85;1689263;81;25840;-56
2022/06/15 07:31:00;;;;;;;10.43;1.22;;;;;;;20.93;39.56;101604.42;1678307;84;26100;-56
2022/06/15 07:33:27;;;;;;;6.55;1.30;;;;;;;21.09;39.20;101606.17;1680672;83;25817;-56
2022/06/15 07:35:54;;;;;;;5.78;1.22;;;;;;;21.28;38.81;101605.30;1699985;83;27466;-56
2022/06/15 07:38:21;;;;;;;4.53;1.12;;;;;;;21.48;38.07;101606.13;1699478;83;25886;-57
2022/06/15 07:40:49;;;;;;;2.27;0.80;;;;;;;21.54;37.64;101598.02;1697170;81;25855;-56
2022/06/15 07:43:17;;;;;;;5.62;1.17;;;;;;;21.56;36.06;101602.76;1695536;82;26092;-56
2022/06/15 07:45:45;;;;;;;4.10;1.20;;;;;;;21.50;36.12;101606.27;1699230;82;25734;-58
2022/06/15 07:50:58;;;;;;;3.15;1.15;;;;;;;21.63;37.28;101604.80;1746763;80;25765;-55
2022/06/15 07:53:25;;;;;;;5.15;1.27;;;;;;;21.69;36.81;101607.63;1775695;80;25865;-56
2022/06/15 07:55:53;;;;;;;4.60;0.80;;;;;;;21.73;36.42;101602.08;1762992;79;26284;-56
2022/06/15 07:58:21;;;;;;;4.15;1.10;;;;;;;21.79;37.24;101604.59;1762891;79;25729;-56
2022/06/15 08:00:50;;;;;;;6.00;0.85;;;;;;;21.65;35.75;101606.83;1762121;78;27634;-56
2022/06/15 08:03:18;;;;;;;3.20;0.88;;;;;;;21.54;36.03;101598.02;1755040;78;25442;-56
2022/06/15 08:05:49;;;;;;;3.30;1.22;;;;;;;21.55;36.61;101601.09;1761388;80;25717;-56
2022/06/15 08:08:23;;;;;;;8.03;1.05;;;;;;;21.67;36.62;101597.88;1753172;79;26114;-57
2022/06/15 08:10:49;;;;;;;;;;;;;;;21.74;36.14;101605.66;1766207;79;25727;-57
2022/06/15 08:13:18;;;;;;;3.58;0.85;;;;;;;21.80;35.23;101601.31;1754663;80;27396;-57
2022/06/15 08:15:47;;;;;;;4.30;1.00;;;;;;;21.87;35.57;101604.48;1754498;79;25685;-57
2022/06/15 08:18:24;;;;;;;2.40;0.80;;;;;;;22.02;35.48;101595.38;1754574;79;25738;-56
2022/06/15 08:21:05;;;;;;;8.60;0.90;;;;;;;22.01;34.32;101605.50;1767250;79;26085;-56
2022/06/15 08:23:36;;;;;;;10.03;1.00;;;;;;;22.01;34.19;101601.89;1754361;78;25744;-56
2022/06/15 08:26:08;;;;;;;3.50;0.80;;;;;;;22.12;34.19;101593.72;1764331;80;27498;-55
2022/06/15 08:28:39;;;;;;;5.03;1.00;;;;;;;22.36;34.10;101590.61;1754431;78;27305;-56
2022/06/15 08:31:06;;;;;;;4.10;0.88;;;;;;;22.55;34.33;101591.58;1758408;79;25714;-56
2022/06/15 08:33:34;;;;;;;5.35;1.32;;;;;;;22.83;33.72;101587.49;1763796;79;26842;-55
2022/06/15 08:36:00;;;;;;;7.45;1.20;;;;;;;23.07;34.07;101589.47;1756987;80;25810;-56
2022/06/15 08:38:28;;;;;;;3.52;1.05;;;;;;;23.28;33.94;101595.45;1748195;80;29636;-57
2022/06/15 08:41:00;;;;;;;5.60;1.22;;;;;;;23.47;33.58;101595.77;1774006;80;25722;-56
2022/06/15 08:43:57;;;;;;;5.40;1.00;;;;;;;23.64;33.83;101600.42;1776874;80;25813;-56
2022/06/15 08:46:54;;;;;;;5.72;1.20;;;;;;;23.85;32.91;101584.35;1748517;80;26110;-57
2022/06/15 08:55:28;;;;;;;7.25;1.25;;;;;;;24.33;32.17;101587.09;1763956;80;25856;-57
2022/06/15 08:58:10;;;;;;;8.45;1.07;;;;;;;24.38;31.91;101601.05;1753578;80;25975;-56
2022/06/15 09:00:40;;;;;;;5.17;1.15;;;;;;;24.17;30.97;101599.81;1753838;80;26089;-56
2022/06/15 09:03:44;;;;;;;4.47;1.82;;;;;;;24.08;31.21;101593.67;1758454;80;25750;-56
2022/06/15 09:06:14;;;;;;;;;;;;;;;24.35;31.54;101600.62;1761871;80;27519;-57
2022/06/15 09:09:15;;;;;;;27.85;1.50;;;;;;;24.66;31.61;101602.78;1761335;80;25449;-56
2022/06/15 09:15:38;;;;;;;9.20;1.30;;;;;;;25.20;31.49;101596.43;1756043;80;26094;-57
2022/06/15 09:18:16;;;;;;;3.60;1.10;;;;;;;25.66;30.96;101601.56;1760460;80;25510;-56
2022/06/15 09:20:49;;;;;;;6.35;1.60;;;;;;;25.85;30.07;101595.14;1769389;80;27483;-56
2022/06/15 09:23:21;;;;;;;5.87;1.98;;;;;;;25.67;29.26;101597.20;1760901;80;25710;-56
2022/06/15 09:25:56;;;;;;;4.55;2.02;;;;;;;25.55;30.40;101597.59;1758713;80;25471;-57
2022/06/15 09:28:34;;;;;;;7.80;2.20;;;;;;;25.57;30.34;101592.17;1754456;80;26275;-56
2022/06/15 09:31:22;;;;;;;13.95;1.62;;;;;;;25.63;30.55;101591.84;1759217;80;25500;-56
2022/06/15 09:34:01;;;;;;;2.70;0.90;;;;;;;25.90;30.42;101590.35;1753603;80;27483;-56
2022/06/15 09:36:37;;;;;;;4.30;1.15;;;;;;;25.86;28.74;101589.95;1764257;80;25735;-57
2022/06/15 09:39:05;;;;;;;5.20;1.00;;;;;;;25.72;29.17;101596.55;1773035;80;25727;-56
2022/06/15 09:41:47;;;;;;;3.70;1.12;;;;;;;26.29;29.04;101593.14;1718817;83;26738;-56
2022/06/15 09:44:47;;;;;;;4.78;1.40;;;;;;;26.46;27.93;101590.69;1712416;82;26432;-56
2022/06/15 09:47:43;;;;;;;4.22;0.82;;;;;;;26.65;28.21;101580.04;1690919;82;27485;-56
2022/06/15 09:50:51;;;;;;;3.12;0.80;;;;;;;26.99;27.12;101583.94;1696828;82;26464;-57
2022/06/15 09:53:53;;;;;;;4.42;1.12;;;;;;;26.87;26.86;101579.14;1701511;83;25778;-56
2022/06/15 09:56:23;;;;;;;3.10;0.60;;;;;;;27.01;26.71;101584.02;1696558;82;26155;-57
2022/06/15 09:58:58;;;;;;;3.15;0.95;;;;;;;27.35;25.69;101572.63;1700187;82;25665;-57
2022/06/15 10:01:30;;;;;;;17.45;1.70;;;;;;;27.41;26.69;101571.70;1701253;83;27324;-58
2022/06/15 10:04:00;;;;;;;3.03;1.27;;;;;;;27.90;26.21;101568.19;1698692;82;25880;-57
2022/06/15 10:06:45;;;;;;;5.22;0.95;;;;;;;27.73;26.50;101570.20;1700077;83;25819;-57
2022/06/15 10:09:17;;;;;;;5.20;0.85;;;;;;;27.60;25.33;101571.73;1697104;83;26138;-57
2022/06/15 10:11:51;;;;;;;2.72;0.72;;;;;;;27.99;25.93;101575.08;1697148;82;25483;-57
2022/06/15 10:14:29;;;;;;;8.35;1.00;;;;;;;28.71;25.02;101563.72;1696884;83;27510;-57
2022/06/15 10:17:05;;;;;;;7.53;0.90;;;;;;;28.73;24.46;101564.33;1698903;82;25874;-57
2022/06/15 10:19:34;;;;;;;3.40;1.10;;;;;;;28.18;24.32;101562.62;1755272;79;25541;-57
2022/06/15 10:22:06;;;;;;;8.28;1.15;;;;;;;27.87;24.98;101560.34;1764694;79;26164;-56
2022/06/15 10:24:39;;;;;;;6.62;0.88;;;;;;;27.90;26.05;101564.03;1773868;79;25518;-55
2022/06/15 10:27:35;;;;;;;2.87;0.85;;;;;;;28.22;25.80;101563.30;1772449;79;28103;-57
2022/06/15 10:30:19;;;;;;;7.22;1.10;;;;;;;28.32;24.58;101563.27;1766016;80;25521;-57
2022/06/15 10:33:04;;;;;;;8.55;1.07;;;;;;;27.99;25.87;101556.24;1761838;80;25925;-57
2022/06/15 10:35:35;;;;;;;4.17;1.22;;;;;;;28.34;25.24;101548.63;1776600;80;26238;-56
2022/06/15 10:38:07;;;;;;;11.15;1.47;;;;;;;29.42;24.57;101547.65;1767363;78;25708;-56
2022/06/15 10:40:37;;;;;;;7.22;1.20;;;;;;;30.16;23.97;101544.16;1780560;80;27544;-56
2022/06/15 10:43:18;;;;;;;11.97;1.37;;;;;;;30.19;23.93;101538.09;1762421;80;26416;-56
2022/06/15 10:46:02;;;;;;;7.62;1.00;;;;;;;29.80;23.31;101547.61;1711689;82;25885;-56
2022/06/15 10:48:47;;;;;;;10.78;1.10;;;;;;;29.69;23.92;101541.55;1693536;83;26133;-57
2022/06/15 10:51:18;;;;;;;4.30;1.17;;;;;;;29.39;24.04;101543.44;1754279;80;25752;-57
2022/06/15 10:53:54;;;;;;;9.70;1.30;;;;;;;28.92;24.53;101541.52;1731441;80;27707;-57
2022/06/15 11:02:39;;;;;;;7.55;1.60;;;;;;;29.78;24.43;101529.81;1777149;80;26175;-57
2022/06/15 11:05:16;;;;;;;5.70;1.05;;;;;;;30.93;22.46;101532.66;1766955;80;25901;-56
2022/06/15 11:08:01;;;;;;;7.03;1.20;;;;;;;31.43;21.80;101530.88;1762358;80;27068;-56
2022/06/15 11:10:43;;;;;;;7.75;1.20;;;;;;;32.14;22.40;101521.09;1770007;79;25845;-56
2022/06/15 11:13:30;;;;;;;11.85;0.90;;;;;;;33.00;21.30;101524.05;1754679;80;25771;-56
2022/06/15 11:19:01;;;;;;;14.75;1.42;;;;;;;34.07;19.64;101514.16;1742055;80;25956;-57
2022/06/15 11:21:57;;;;;;;3.72;1.15;;;;;;;34.66;19.00;101509.98;1753770;80;27486;-57
2022/06/15 11:24:44;;;;;;;4.25;1.32;;;;;;;33.48;20.30;101514.27;1777401;80;25788;-57
2022/06/15 11:27:42;;;;;;;7.05;1.32;;;;;;;32.10;20.65;101511.62;1766584;80;25726;-57
2022/06/15 11:30:26;;;;;;;4.10;0.90;;;;;;;31.37;21.52;101516.92;1759762;80;26266;-56
2022/06/15 11:33:26;;;;;;;3.00;1.10;;;;;;;30.65;22.11;101512.23;1753085;80;25941;-56
2022/06/15 11:35:58;;;;;;;6.25;4.05;;;;;;;31.05;21.81;101509.78;1754052;80;27357;-57
2022/06/15 11:38:40;;;;;;;9.75;1.22;;;;;;;31.94;21.79;101511.18;1767125;80;25967;-57
2022/06/15 11:41:15;;;;;;;3.60;1.02;;;;;;;31.73;20.72;101508.73;1754133;80;25891;-56
2022/06/15 11:43:46;;;;;;;8.28;1.57;;;;;;;30.82;21.22;101510.84;1750781;80;26114;-57
2022/06/15 11:46:32;;;;;;;7.78;1.47;;;;;;;31.03;21.81;101510.02;1759514;80;43919;-56
2022/06/15 11:49:11;;;;;;;5.40;1.65;;;;;;;31.57;21.25;101501.56;1750036;80;27476;-57
2022/06/15 11:52:14;;;;;;;3.80;0.98;;;;;;;32.19;21.28;101493.87;1753835;79;25867;-56
2022/06/15 11:54:56;;;;;;;12.60;1.57;;;;;;;31.86;21.56;101495.80;1758430;80;25736;-56
2022/06/15 11:57:45;;;;;;;7.80;1.12;;;;;;;31.57;21.19;101499.34;1759377;80;27547;-56
2022/06/15 12:00:43;;;;;;;3.25;0.80;;;;;;;32.49;20.47;101505.01;1754668;79;25665;-56
2022/06/15 12:03:41;;;;;;;4.97;1.32;;;;;;;33.23;20.20;101492.13;1758369;80;27504;-57
2022/06/15 12:06:34;;;;;;;16.05;1.47;;;;;;;34.30;18.38;101484.85;1779936;80;26090;-57
2022/06/15 12:09:26;;;;;;;3.12;0.93;;;;;;;34.17;18.72;101487.08;1781470;80;25470;-57
2022/06/15 12:15:21;;;;;;;4.22;1.37;;;;;;;34.91;17.98;101483.12;1752563;80;25811;-55
2022/06/15 12:18:19;;;;;;;7.92;1.10;;;;;;;35.30;17.61;101485.23;1757724;80;27627;-57
2022/06/15 12:21:03;;;;;;;4.35;1.05;;;;;;;34.12;17.44;101486.23;1749770;80;26137;-57
2022/06/15 12:23:59;;;;;;;5.47;0.90;;;;;;;33.16;18.64;101487.89;1758842;80;25737;-57
2022/06/15 12:27:04;;;;;;;2.33;0.90;;;;;;;32.25;19.10;101480.87;1757994;80;26119;-56